Time;durP1;ratioP1;P1;durP2;ratioP2;P2;SDS_P1;SDS_P2;PMS_P1;PMS_P2;Temp;Humidity;BMP_temperature;BMP_pressure;BME280_temperature;BME280_humidity;BME280_pressure;Samples;Min_cycle;Max_cycle;Signal;HPM_P1;HPM_P2
2024/02/09 00:01:56;;;;;;;12.30;4.22;;;;;;;;;;4924069;29;20037;-85
2024/02/09 00:04:41;;;;;;;9.68;3.10;;;;;;;;;;4923775;29;20038;-84
2024/02/09 00:07:27;;;;;;;14.50;3.25;;;;;;;;;;4921981;29;20024;-83
2024/02/09 00:10:13;;;;;;;10.82;3.47;;;;;;;;;;4933525;29;20026;-84
2024/02/09 00:12:59;;;;;;;9.05;3.05;;;;;;;;;;4929248;29;20031;-84
2024/02/09 00:15:47;;;;;;;12.38;4.15;;;;;;;;;;4931840;28;20134;-84
2024/02/09 00:18:33;;;;;;;9.57;3.30;;;;;;;;;;4926568;28;20035;-83
2024/02/09 00:21:18;;;;;;;14.07;3.85;;;;;;;;;;4935872;29;20054;-85
2024/02/09 00:24:03;;;;;;;13.05;4.00;;;;;;;;;;4923914;29;20114;-87
2024/02/09 00:26:49;;;;;;;11.80;2.97;;;;;;;;;;4930139;28;20023;-87
2024/02/09 00:29:35;;;;;;;10.60;2.85;;;;;;;;;;4949391;28;20034;-86
2024/02/09 00:32:20;;;;;;;12.32;3.42;;;;;;;;;;4934910;28;20020;-86
2024/02/09 00:35:08;;;;;;;11.05;3.15;;;;;;;;;;4938659;28;20031;-86
2024/02/09 00:37:55;;;;;;;13.15;3.28;;;;;;;;;;4933892;29;20038;-86
2024/02/09 00:40:41;;;;;;;11.35;3.53;;;;;;;;;;4941773;28;20043;-85
2024/02/09 00:43:27;;;;;;;14.20;3.78;;;;;;;;;;4940256;29;20024;-86
2024/02/09 00:46:15;;;;;;;21.10;10.35;;;;;;;;;;4940923;29;20031;-86
2024/02/09 00:49:03;;;;;;;10.13;4.80;;;;;;;;;;4942242;28;20038;-86
2024/02/09 00:51:52;;;;;;;12.55;3.75;;;;;;;;;;4942825;29;20042;-85
2024/02/09 00:54:38;;;;;;;13.52;3.47;;;;;;;;;;4929523;28;20034;-85
2024/02/09 00:57:23;;;;;;;11.70;3.45;;;;;;;;;;4936978;28;20039;-85
2024/02/09 01:00:10;;;;;;;14.27;4.00;;;;;;;;;;4939561;28;20026;-85
2024/02/09 01:02:59;;;;;;;10.35;3.17;;;;;;;;;;4954553;28;20041;-86
2024/02/09 01:05:46;;;;;;;11.80;3.65;;;;;;;;;;4932817;29;20026;-86
2024/02/09 01:08:31;;;;;;;11.05;3.30;;;;;;;;;;4936447;28;20141;-86
2024/02/09 01:11:17;;;;;;;10.10;4.50;;;;;;;;;;4935569;28;20038;-85
2024/02/09 02:45:56;;;;;;;14.93;3.78;;;;;;;;;;4940517;29;20024;-83
2024/02/09 03:04:21;;;;;;;10.35;4.07;;;;;;;;;;4935667;28;20032;-84
2024/02/09 03:07:06;;;;;;;12.77;5.35;;;;;;;;;;4939554;28;20027;-84
2024/02/09 03:09:52;;;;;;;12.63;4.70;;;;;;;;;;4926643;28;20031;-85
2024/02/09 03:12:40;;;;;;;11.40;2.78;;;;;;;;;;4939925;28;20027;-85
2024/02/09 03:15:25;;;;;;;10.32;3.70;;;;;;;;;;4936156;28;20029;-85
2024/02/09 03:18:11;;;;;;;8.65;3.50;;;;;;;;;;4933955;28;20039;-86
2024/02/09 03:20:58;;;;;;;19.60;4.60;;;;;;;;;;4938279;29;20031;-85
2024/02/09 03:23:43;;;;;;;13.10;3.53;;;;;;;;;;4933859;29;20028;-85
2024/02/09 03:26:29;;;;;;;10.15;3.72;;;;;;;;;;4925180;29;20072;-86
2024/02/09 03:29:14;;;;;;;13.23;3.17;;;;;;;;;;4938514;28;20046;-86
2024/02/09 03:32:00;;;;;;;10.40;3.45;;;;;;;;;;4943044;28;20027;-86
2024/02/09 03:34:47;;;;;;;10.73;2.80;;;;;;;;;;4936002;28;20110;-85
2024/02/09 03:37:33;;;;;;;15.63;3.60;;;;;;;;;;4936737;28;20106;-86
2024/02/09 03:40:18;;;;;;;10.48;3.20;;;;;;;;;;4941442;29;20027;-85
2024/02/09 03:43:03;;;;;;;11.18;3.42;;;;;;;;;;4939241;28;20042;-83
2024/02/09 03:45:49;;;;;;;10.45;3.40;;;;;;;;;;4943775;29;20038;-85
2024/02/09 03:48:34;;;;;;;11.77;3.90;;;;;;;;;;4934748;28;20111;-83
2024/02/09 03:51:20;;;;;;;10.65;3.22;;;;;;;;;;4938354;28;20027;-84
2024/02/09 03:54:05;;;;;;;9.77;3.50;;;;;;;;;;4928085;28;20034;-84
2024/02/09 03:56:50;;;;;;;11.27;3.50;;;;;;;;;;4934153;28;20023;-82
2024/02/09 03:59:36;;;;;;;9.85;3.80;;;;;;;;;;4938720;29;20031;-83
2024/02/09 04:02:22;;;;;;;7.07;2.97;;;;;;;;;;4936585;28;20027;-85
2024/02/09 04:05:07;;;;;;;11.63;2.72;;;;;;;;;;4936185;29;20403;-84
2024/02/09 04:07:52;;;;;;;16.52;4.03;;;;;;;;;;4935052;29;20087;-84
2024/02/09 04:10:37;;;;;;;7.28;2.80;;;;;;;;;;4938592;28;20073;-86
2024/02/09 04:13:22;;;;;;;9.80;3.58;;;;;;;;;;4933991;28;20106;-85
2024/02/09 04:16:08;;;;;;;12.57;3.45;;;;;;;;;;4924460;29;20056;-86
2024/02/09 04:18:53;;;;;;;10.63;3.10;;;;;;;;;;4931405;29;20090;-85
2024/02/09 04:21:47;;;;;;;10.25;2.90;;;;;;;;;;4925877;29;20027;-86
2024/02/09 04:24:32;;;;;;;11.07;3.55;;;;;;;;;;4932443;29;20027;-84
2024/02/09 04:27:17;;;;;;;10.25;3.05;;;;;;;;;;4923928;29;20032;-86
2024/02/09 04:30:03;;;;;;;7.20;3.15;;;;;;;;;;4932543;29;20016;-85
2024/02/09 04:32:48;;;;;;;10.10;3.25;;;;;;;;;;4927692;29;20032;-85
2024/02/09 04:35:34;;;;;;;11.35;3.55;;;;;;;;;;4931277;29;20063;-86
2024/02/09 04:38:20;;;;;;;6.55;2.67;;;;;;;;;;4933277;29;20117;-83
2024/02/09 04:41:05;;;;;;;9.20;2.90;;;;;;;;;;4931908;29;20027;-84
2024/02/09 04:43:52;;;;;;;5.53;3.10;;;;;;;;;;4938783;29;20052;-84
2024/02/09 04:46:42;;;;;;;10.88;3.05;;;;;;;;;;4934368;29;20107;-83
2024/02/09 04:49:27;;;;;;;6.28;3.17;;;;;;;;;;4951525;29;20055;-83
2024/02/09 04:52:13;;;;;;;8.40;2.55;;;;;;;;;;4955237;28;20007;-84
2024/02/09 04:54:58;;;;;;;6.78;2.88;;;;;;;;;;4943835;29;20072;-84
2024/02/09 04:57:44;;;;;;;12.32;6.05;;;;;;;;;;4950229;29;20099;-84
2024/02/09 05:00:29;;;;;;;7.40;3.67;;;;;;;;;;4947208;29;20095;-83
2024/02/09 05:03:14;;;;;;;8.35;2.90;;;;;;;;;;4935986;29;20028;-86
2024/02/09 05:05:59;;;;;;;11.00;2.97;;;;;;;;;;4924129;29;20062;-84
2024/02/09 05:08:45;;;;;;;9.35;3.15;;;;;;;;;;4934858;29;20024;-86
2024/02/09 05:11:30;;;;;;;8.13;2.30;;;;;;;;;;4930303;29;20055;-85
2024/02/09 05:14:16;;;;;;;8.02;3.20;;;;;;;;;;4923187;29;20030;-86
2024/02/09 05:17:01;;;;;;;5.47;2.58;;;;;;;;;;4923644;29;20051;-85
2024/02/09 05:19:47;;;;;;;7.32;2.72;;;;;;;;;;4917024;29;20028;-84
2024/02/09 05:22:32;;;;;;;7.00;2.17;;;;;;;;;;4927138;29;20020;-84
2024/02/09 05:25:20;;;;;;;7.55;2.45;;;;;;;;;;4916252;29;20040;-86
2024/02/09 05:28:05;;;;;;;8.10;1.95;;;;;;;;;;4925066;29;20050;-86
2024/02/09 05:30:51;;;;;;;6.63;2.22;;;;;;;;;;4923713;29;20028;-88
2024/02/09 05:33:36;;;;;;;4.70;2.15;;;;;;;;;;4928969;29;20110;-85
2024/02/09 05:36:28;;;;;;;7.25;2.17;;;;;;;;;;4921413;29;20115;-84
2024/02/09 05:39:13;;;;;;;8.43;2.30;;;;;;;;;;4921729;29;20134;-84
2024/02/09 05:41:59;;;;;;;4.07;2.53;;;;;;;;;;4933435;28;20163;-83
2024/02/09 05:44:44;;;;;;;3.85;2.13;;;;;;;;;;4929511;29;20038;-88
2024/02/09 05:47:30;;;;;;;5.65;2.50;;;;;;;;;;4940532;29;20026;-87
2024/02/09 05:50:21;;;;;;;6.80;2.00;;;;;;;;;;4930436;29;20050;-87
2024/02/09 05:53:07;;;;;;;4.88;2.03;;;;;;;;;;4934742;29;20031;-86
2024/02/09 05:55:52;;;;;;;6.55;1.92;;;;;;;;;;4928578;29;20126;-87
2024/02/09 05:58:37;;;;;;;6.18;2.10;;;;;;;;;;4937264;29;20027;-85
2024/02/09 06:01:28;;;;;;;4.85;2.00;;;;;;;;;;4930985;29;20026;-85
2024/02/09 06:04:14;;;;;;;6.05;2.33;;;;;;;;;;4927561;29;20190;-84
2024/02/09 06:06:59;;;;;;;7.15;2.42;;;;;;;;;;4934776;29;20023;-85
2024/02/09 06:09:44;;;;;;;6.45;2.20;;;;;;;;;;4938169;29;20023;-84
2024/02/09 06:12:32;;;;;;;5.97;1.73;;;;;;;;;;4932282;29;20028;-85
2024/02/09 06:15:17;;;;;;;2.55;1.40;;;;;;;;;;4918789;29;20102;-85
2024/02/09 06:18:04;;;;;;;6.75;1.85;;;;;;;;;;4940084;28;20429;-82
2024/02/09 06:20:52;;;;;;;3.38;1.55;;;;;;;;;;4929947;29;20042;-84
2024/02/09 06:23:39;;;;;;;3.88;1.98;;;;;;;;;;4931746;29;20039;-81
2024/02/09 06:26:24;;;;;;;7.13;2.22;;;;;;;;;;4922890;29;20364;-84
2024/02/09 06:29:10;;;;;;;6.20;2.97;;;;;;;;;;4932853;29;20019;-84
2024/02/09 06:31:56;;;;;;;7.70;1.70;;;;;;;;;;4925782;28;20454;-80
2024/02/09 06:34:42;;;;;;;3.55;1.65;;;;;;;;;;4936079;28;20023;-85
2024/02/09 06:37:28;;;;;;;4.05;1.80;;;;;;;;;;4934492;29;20371;-83
2024/02/09 06:40:13;;;;;;;3.85;1.80;;;;;;;;;;4926960;29;20039;-82
2024/02/09 06:42:59;;;;;;;3.22;1.33;;;;;;;;;;4924972;28;20034;-83
2024/02/09 06:45:44;;;;;;;2.03;1.33;;;;;;;;;;4928367;28;20494;-82
2024/02/09 06:48:30;;;;;;;4.18;1.50;;;;;;;;;;4932849;29;20023;-83
2024/02/09 06:51:19;;;;;;;7.85;1.95;;;;;;;;;;4926474;29;20471;-83
2024/02/09 06:54:04;;;;;;;4.55;1.27;;;;;;;;;;4927510;28;20035;-81
2024/02/09 06:56:53;;;;;;;3.30;1.65;;;;;;;;;;4922617;29;20039;-82
2024/02/09 06:59:41;;;;;;;4.55;2.10;;;;;;;;;;4931164;28;20053;-84
2024/02/09 07:02:26;;;;;;;1.73;1.20;;;;;;;;;;4916542;28;20066;-84
2024/02/09 07:05:14;;;;;;;1.73;1.25;;;;;;;;;;4920816;29;20032;-85
2024/02/09 07:07:59;;;;;;;3.42;1.20;;;;;;;;;;4924991;28;20043;-85
2024/02/09 07:10:45;;;;;;;3.92;1.27;;;;;;;;;;4937524;28;20027;-85
2024/02/09 07:13:30;;;;;;;1.23;1.08;;;;;;;;;;4940172;28;20035;-83
2024/02/09 07:16:17;;;;;;;5.43;1.52;;;;;;;;;;4925709;28;20165;-82
2024/02/09 07:19:02;;;;;;;3.60;1.38;;;;;;;;;;4930225;28;20063;-85
2024/02/09 07:21:48;;;;;;;1.63;1.17;;;;;;;;;;4933300;28;20031;-86
2024/02/09 07:24:33;;;;;;;3.17;1.50;;;;;;;;;;4933007;29;20027;-85
2024/02/09 07:27:19;;;;;;;4.22;1.55;;;;;;;;;;4932017;28;20040;-84
2024/02/09 07:30:04;;;;;;;4.40;1.50;;;;;;;;;;4931217;28;20035;-82
2024/02/09 07:32:50;;;;;;;2.08;1.52;;;;;;;;;;4928587;29;20046;-83
2024/02/09 07:35:35;;;;;;;2.10;1.50;;;;;;;;;;4933441;28;20027;-83
2024/02/09 07:38:20;;;;;;;3.38;1.50;;;;;;;;;;4932082;28;20047;-87
2024/02/09 07:41:11;;;;;;;3.45;1.70;;;;;;;;;;4932361;28;20035;-85
2024/02/09 07:43:56;;;;;;;4.80;1.65;;;;;;;;;;4936255;28;20096;-87
2024/02/09 07:46:44;;;;;;;4.32;2.00;;;;;;;;;;4933333;29;20034;-86
2024/02/09 07:49:33;;;;;;;1.88;1.20;;;;;;;;;;4938151;28;20546;-83
2024/02/09 07:52:18;;;;;;;5.47;1.80;;;;;;;;;;4932145;29;20078;-84
2024/02/09 07:55:07;;;;;;;4.13;1.30;;;;;;;;;;4923057;29;20094;-84
2024/02/09 07:57:52;;;;;;;4.87;1.23;;;;;;;;;;4932087;28;20023;-84
2024/02/09 08:00:37;;;;;;;3.88;1.52;;;;;;;;;;4936427;28;20121;-85
2024/02/09 08:03:23;;;;;;;3.38;1.40;;;;;;;;;;4929545;28;20098;-84
2024/02/09 08:06:08;;;;;;;2.85;1.38;;;;;;;;;;4926457;29;20036;-84
2024/02/09 08:08:56;;;;;;;3.53;1.60;;;;;;;;;;4923772;29;20031;-82
2024/02/09 08:11:45;;;;;;;3.50;1.33;;;;;;;;;;4931499;28;20066;-83
2024/02/09 08:14:34;;;;;;;3.10;1.50;;;;;;;;;;4933003;28;20039;-84
2024/02/09 08:17:19;;;;;;;4.35;1.70;;;;;;;;;;4921211;28;20423;-84
2024/02/09 08:20:09;;;;;;;4.10;1.83;;;;;;;;;;4925186;29;20044;-84
2024/02/09 08:22:55;;;;;;;4.72;1.80;;;;;;;;;;4927402;29;20036;-84
2024/02/09 08:25:40;;;;;;;4.72;2.00;;;;;;;;;;4928995;29;20043;-83
2024/02/09 08:28:25;;;;;;;4.65;1.38;;;;;;;;;;4928066;29;20112;-84
2024/02/09 08:31:13;;;;;;;4.95;1.40;;;;;;;;;;4926315;29;20043;-83
2024/02/09 08:33:59;;;;;;;3.42;1.40;;;;;;;;;;4922269;29;20103;-84
2024/02/09 08:36:44;;;;;;;2.55;1.13;;;;;;;;;;4918743;29;20035;-84
2024/02/09 08:39:30;;;;;;;5.00;1.48;;;;;;;;;;4921274;29;20024;-81
2024/02/09 08:42:15;;;;;;;5.47;1.38;;;;;;;;;;4927453;29;20024;-83
2024/02/09 08:45:01;;;;;;;4.20;1.75;;;;;;;;;;4930739;29;20028;-84
2024/02/09 08:47:46;;;;;;;2.58;1.52;;;;;;;;;;4921075;29;20032;-85
2024/02/09 08:50:31;;;;;;;4.88;1.77;;;;;;;;;;4927436;29;20027;-83
2024/02/09 08:53:17;;;;;;;4.82;2.50;;;;;;;;;;4929594;29;20056;-83
2024/02/09 08:56:02;;;;;;;3.42;1.85;;;;;;;;;;4924516;29;20439;-83
2024/02/09 08:58:47;;;;;;;4.28;1.70;;;;;;;;;;4928850;29;20083;-86
2024/02/09 09:01:34;;;;;;;4.03;1.70;;;;;;;;;;4941786;29;20044;-84
2024/02/09 09:04:22;;;;;;;4.35;1.50;;;;;;;;;;4932759;29;20468;-84
2024/02/09 09:07:08;;;;;;;9.02;1.70;;;;;;;;;;4936477;29;20538;-87
2024/02/09 09:09:53;;;;;;;2.10;1.70;;;;;;;;;;4930842;29;20028;-86
2024/02/09 09:12:38;;;;;;;4.05;1.65;;;;;;;;;;4934569;29;20112;-86
2024/02/09 09:15:24;;;;;;;5.38;1.90;;;;;;;;;;4932900;28;20035;-87
2024/02/09 09:18:09;;;;;;;4.15;1.67;;;;;;;;;;4935846;28;20038;-85
2024/02/09 09:20:55;;;;;;;3.90;1.55;;;;;;;;;;4949694;28;20057;-84
2024/02/09 09:23:40;;;;;;;5.50;2.28;;;;;;;;;;4946568;28;20128;-87
2024/02/09 09:26:30;;;;;;;3.20;1.52;;;;;;;;;;4931699;28;20490;-84
2024/02/09 09:29:15;;;;;;;6.72;1.50;;;;;;;;;;4927095;29;20031;-84
2024/02/09 09:32:01;;;;;;;3.92;1.60;;;;;;;;;;4926563;28;20028;-84
2024/02/09 09:35:00;;;;;;;3.63;1.40;;;;;;;;;;4932390;29;20034;-85
2024/02/09 09:37:48;;;;;;;4.00;1.55;;;;;;;;;;4925453;28;20097;-84
2024/02/09 09:40:35;;;;;;;2.65;1.77;;;;;;;;;;4924098;29;20035;-84
2024/02/09 09:43:24;;;;;;;5.18;2.10;;;;;;;;;;4927281;28;20035;-86
2024/02/09 09:46:12;;;;;;;4.30;1.58;;;;;;;;;;4927956;28;20027;-84
2024/02/09 09:48:59;;;;;;;7.53;1.73;;;;;;;;;;4928799;29;20031;-85
2024/02/09 09:51:49;;;;;;;2.70;1.23;;;;;;;;;;4926099;28;20031;-83
2024/02/09 09:54:37;;;;;;;;;;;;;;;;;;4916574;29;20035;-84
2024/02/09 09:57:23;;;;;;;6.55;1.95;;;;;;;;;;4930412;28;19913;-84
2024/02/09 10:00:09;;;;;;;5.88;1.45;;;;;;;;;;4920027;28;20066;-84
2024/02/09 10:02:55;;;;;;;5.43;1.83;;;;;;;;;;4928438;28;20106;-85
2024/02/09 10:05:40;;;;;;;5.55;1.60;;;;;;;;;;4925753;28;20042;-83
2024/02/09 10:08:28;;;;;;;3.08;1.65;;;;;;;;;;4923940;28;20086;-83
2024/02/09 10:11:13;;;;;;;3.78;1.95;;;;;;;;;;4936167;28;20034;-84
2024/02/09 10:13:59;;;;;;;3.42;1.63;;;;;;;;;;4942973;28;20031;-84
2024/02/09 10:16:47;;;;;;;4.65;1.90;;;;;;;;;;4930137;28;20071;-85
2024/02/09 10:19:33;;;;;;;6.63;2.45;;;;;;;;;;4933805;28;20031;-85
2024/02/09 10:22:18;;;;;;;3.15;1.73;;;;;;;;;;4929539;28;20023;-83
2024/02/09 10:25:04;;;;;;;4.00;1.50;;;;;;;;;;4924456;28;20078;-84
2024/02/09 10:27:52;;;;;;;3.03;1.27;;;;;;;;;;4929667;28;20027;-85
2024/02/09 10:30:38;;;;;;;4.63;1.30;;;;;;;;;;4940975;28;20027;-83
2024/02/09 10:33:23;;;;;;;5.13;1.75;;;;;;;;;;4929136;28;20038;-84
2024/02/09 10:36:11;;;;;;;3.38;1.50;;;;;;;;;;4927520;28;20019;-84
2024/02/09 10:38:58;;;;;;;3.97;1.88;;;;;;;;;;4928393;28;20034;-86
2024/02/09 10:41:46;;;;;;;8.20;2.42;;;;;;;;;;4927746;28;20034;-85
2024/02/09 10:44:32;;;;;;;10.27;1.75;;;;;;;;;;4924930;28;20063;-83
2024/02/09 10:47:19;;;;;;;3.17;1.50;;;;;;;;;;4928379;28;20090;-84
2024/02/09 10:50:05;;;;;;;5.15;1.52;;;;;;;;;;4930983;28;20079;-82
2024/02/09 10:52:52;;;;;;;4.63;1.48;;;;;;;;;;4929556;28;20027;-83
2024/02/09 10:55:38;;;;;;;2.72;1.50;;;;;;;;;;4929502;28;20027;-82
2024/02/09 10:58:24;;;;;;;3.53;1.52;;;;;;;;;;4926623;28;20026;-83
2024/02/09 11:01:12;;;;;;;4.85;2.08;;;;;;;;;;4926520;29;20110;-82
2024/02/09 11:03:58;;;;;;;5.88;1.40;;;;;;;;;;4927674;28;20023;-83
2024/02/09 11:06:44;;;;;;;4.65;1.63;;;;;;;;;;4926684;28;20038;-81
2024/02/09 11:09:30;;;;;;;1.40;1.30;;;;;;;;;;4930687;28;20024;-85
2024/02/09 11:12:19;;;;;;;6.78;2.03;;;;;;;;;;4931968;28;20095;-84
2024/02/09 11:15:14;;;;;;;5.22;1.63;;;;;;;;;;4929259;28;20035;-83
2024/02/09 11:18:02;;;;;;;5.35;1.88;;;;;;;;;;4929656;28;20079;-87
2024/02/09 11:20:48;;;;;;;4.70;1.38;;;;;;;;;;4934605;28;20118;-81
2024/02/09 11:23:40;;;;;;;3.95;1.60;;;;;;;;;;4930667;28;20120;-82
2024/02/09 11:26:37;;;;;;;3.15;1.27;;;;;;;;;;4929510;28;20106;-82
2024/02/09 11:29:26;;;;;;;3.83;1.70;;;;;;;;;;4924197;28;20189;-82
2024/02/09 11:32:14;;;;;;;5.40;1.58;;;;;;;;;;4945563;28;20058;-82
2024/02/09 11:34:59;;;;;;;2.65;1.30;;;;;;;;;;4938795;28;20027;-82
2024/02/09 11:37:45;;;;;;;7.85;2.20;;;;;;;;;;4925889;28;20064;-82
2024/02/09 11:40:31;;;;;;;4.78;1.55;;;;;;;;;;4925623;29;20023;-81
2024/02/09 11:43:24;;;;;;;2.83;1.65;;;;;;;;;;4931775;29;20045;-82
2024/02/09 11:46:09;;;;;;;4.40;1.30;;;;;;;;;;4935381;28;20138;-81
2024/02/09 11:48:56;;;;;;;5.00;1.88;;;;;;;;;;4941777;28;20032;-81
2024/02/09 11:51:45;;;;;;;2.83;1.10;;;;;;;;;;4928373;28;20034;-82
2024/02/09 11:54:33;;;;;;;3.47;1.77;;;;;;;;;;4926525;28;20098;-80
2024/02/09 11:57:18;;;;;;;2.15;1.40;;;;;;;;;;4933059;28;20256;-80
2024/02/09 12:00:05;;;;;;;3.47;1.42;;;;;;;;;;4933959;28;20062;-81
2024/02/09 12:02:51;;;;;;;4.38;1.70;;;;;;;;;;4929751;29;20494;-82
2024/02/09 12:05:37;;;;;;;4.72;1.63;;;;;;;;;;4934472;28;20066;-82
2024/02/09 12:08:23;;;;;;;6.60;1.60;;;;;;;;;;4931314;29;20059;-80
2024/02/09 12:11:09;;;;;;;2.88;1.30;;;;;;;;;;4931645;28;20027;-81
2024/02/09 12:13:55;;;;;;;3.78;1.55;;;;;;;;;;4936091;28;20426;-81
2024/02/09 12:16:40;;;;;;;4.80;1.70;;;;;;;;;;4934076;28;20549;-84
2024/02/09 12:19:26;;;;;;;3.42;1.15;;;;;;;;;;4935823;28;20036;-84
2024/02/09 12:22:11;;;;;;;3.65;1.77;;;;;;;;;;4927600;28;20055;-84
2024/02/09 12:24:59;;;;;;;1.90;1.10;;;;;;;;;;4932264;29;20024;-83
2024/02/09 12:27:44;;;;;;;4.68;1.30;;;;;;;;;;4929512;28;20082;-84
2024/02/09 12:30:29;;;;;;;2.17;1.40;;;;;;;;;;4934472;28;20023;-83
2024/02/09 12:33:19;;;;;;;4.07;1.77;;;;;;;;;;4934837;28;20019;-85
2024/02/09 12:36:05;;;;;;;3.63;1.42;;;;;;;;;;4927926;28;20027;-84
2024/02/09 12:38:54;;;;;;;4.82;1.70;;;;;;;;;;4932566;28;20393;-84
2024/02/09 12:41:40;;;;;;;5.85;1.50;;;;;;;;;;4936311;28;20130;-83
2024/02/09 12:44:27;;;;;;;6.05;1.52;;;;;;;;;;4934393;28;20046;-84
2024/02/09 12:47:13;;;;;;;5.45;1.90;;;;;;;;;;4932787;28;20063;-83
2024/02/09 12:49:58;;;;;;;4.65;1.48;;;;;;;;;;4942245;28;20033;-82
2024/02/09 12:52:44;;;;;;;2.22;1.15;;;;;;;;;;4940270;28;20031;-81
2024/02/09 12:55:32;;;;;;;6.22;2.20;;;;;;;;;;4940013;28;20064;-83
2024/02/09 12:58:19;;;;;;;2.72;1.30;;;;;;;;;;4950016;28;20023;-86
2024/02/09 13:01:06;;;;;;;2.97;1.58;;;;;;;;;;4948964;28;20027;-85
2024/02/09 13:03:51;;;;;;;4.35;1.58;;;;;;;;;;4957890;28;20145;-83
2024/02/09 13:06:36;;;;;;;2.38;1.50;;;;;;;;;;4958823;28;20127;-84
2024/02/09 13:09:22;;;;;;;2.72;1.52;;;;;;;;;;4934462;29;20031;-84
2024/02/09 13:12:07;;;;;;;2.97;1.67;;;;;;;;;;4938295;28;20035;-83
2024/02/09 13:14:53;;;;;;;5.82;3.47;;;;;;;;;;4935853;29;20035;-81
2024/02/09 13:17:39;;;;;;;4.03;1.73;;;;;;;;;;4937658;28;20047;-82
2024/02/09 13:20:24;;;;;;;3.13;1.33;;;;;;;;;;4932790;29;20086;-82
2024/02/09 13:23:11;;;;;;;6.97;1.98;;;;;;;;;;4933432;29;20034;-83
2024/02/09 13:25:58;;;;;;;6.70;2.17;;;;;;;;;;4939025;28;20113;-82
2024/02/09 13:28:47;;;;;;;7.53;2.13;;;;;;;;;;4931202;29;20056;-82
2024/02/09 13:31:34;;;;;;;5.35;1.58;;;;;;;;;;4935026;28;20031;-83
2024/02/09 13:34:22;;;;;;;3.20;1.55;;;;;;;;;;4931174;28;20599;-82
2024/02/09 13:37:07;;;;;;;6.93;3.25;;;;;;;;;;4931764;28;20026;-84
2024/02/09 13:39:53;;;;;;;5.53;2.42;;;;;;;;;;4932185;28;20085;-84
2024/02/09 13:42:38;;;;;;;6.03;2.30;;;;;;;;;;4934107;28;20028;-82
2024/02/09 13:45:25;;;;;;;7.15;2.22;;;;;;;;;;4935260;28;20038;-84
2024/02/09 13:48:10;;;;;;;3.03;1.70;;;;;;;;;;4931164;28;20019;-83
2024/02/09 13:50:57;;;;;;;3.38;1.70;;;;;;;;;;4927267;28;20368;-82
2024/02/09 13:53:42;;;;;;;4.75;2.13;;;;;;;;;;4930230;28;20035;-81
2024/02/09 13:56:28;;;;;;;3.35;2.10;;;;;;;;;;4936231;28;20071;-83
2024/02/09 13:59:14;;;;;;;6.32;2.38;;;;;;;;;;4934462;28;20541;-82
2024/02/09 14:02:00;;;;;;;7.03;2.00;;;;;;;;;;4932938;28;20042;-81
2024/02/09 14:04:46;;;;;;;3.10;1.45;;;;;;;;;;4931479;28;20034;-79
2024/02/09 14:07:31;;;;;;;5.38;1.80;;;;;;;;;;4937179;28;20035;-80
2024/02/09 14:10:17;;;;;;;4.07;2.00;;;;;;;;;;4938170;28;20085;-80
2024/02/09 14:13:02;;;;;;;5.65;1.73;;;;;;;;;;4927699;28;20062;-81
2024/02/09 14:15:48;;;;;;;5.22;2.20;;;;;;;;;;4933114;28;20066;-79
2024/02/09 14:18:34;;;;;;;3.92;1.98;;;;;;;;;;4931181;28;20027;-81
2024/02/09 14:21:19;;;;;;;2.40;1.23;;;;;;;;;;4930340;28;20027;-81
2024/02/09 14:24:07;;;;;;;6.30;1.73;;;;;;;;;;4927023;28;20031;-80
2024/02/09 14:26:53;;;;;;;4.35;2.17;;;;;;;;;;4931458;28;20030;-79
2024/02/09 14:29:39;;;;;;;2.85;1.80;;;;;;;;;;4918300;28;20570;-82
2024/02/09 14:32:25;;;;;;;6.93;2.00;;;;;;;;;;4928189;29;20030;-81
2024/02/09 14:35:10;;;;;;;4.85;1.65;;;;;;;;;;4932711;28;20031;-80
2024/02/09 14:37:56;;;;;;;2.97;1.67;;;;;;;;;;4925873;28;20058;-79
2024/02/09 14:40:41;;;;;;;4.43;1.60;;;;;;;;;;4930891;28;20043;-82
2024/02/09 14:43:28;;;;;;;5.55;1.60;;;;;;;;;;4927159;28;20110;-80
2024/02/09 14:46:13;;;;;;;4.07;1.88;;;;;;;;;;4929766;28;20027;-80
2024/02/09 14:48:59;;;;;;;5.22;1.92;;;;;;;;;;4926638;29;20091;-83
2024/02/09 14:51:44;;;;;;;4.30;1.90;;;;;;;;;;4938300;28;20038;-83
2024/02/09 14:54:30;;;;;;;4.50;2.22;;;;;;;;;;4933269;28;20030;-81
2024/02/09 14:57:15;;;;;;;6.60;2.60;;;;;;;;;;4924804;29;20035;-81
2024/02/09 15:00:00;;;;;;;4.18;1.88;;;;;;;;;;4929705;28;20110;-79
2024/02/09 15:02:47;;;;;;;5.38;2.00;;;;;;;;;;4932464;28;20036;-82
2024/02/09 15:05:33;;;;;;;5.35;2.40;;;;;;;;;;4929256;28;20079;-79
2024/02/09 15:08:18;;;;;;;7.55;2.53;;;;;;;;;;4917451;29;20040;-80
2024/02/09 15:11:22;;;;;;;6.88;2.67;;;;;;;;;;4926694;28;20031;-83
2024/02/09 15:14:09;;;;;;;5.68;2.15;;;;;;;;;;4924992;29;20867;-80
2024/02/09 15:16:54;;;;;;;4.95;2.25;;;;;;;;;;4928255;29;20055;-82
2024/02/09 15:19:40;;;;;;;3.10;1.50;;;;;;;;;;4921077;28;20043;-82
2024/02/09 15:22:26;;;;;;;5.63;2.08;;;;;;;;;;4925096;28;20031;-79
2024/02/09 15:25:13;;;;;;;5.90;2.17;;;;;;;;;;4917696;29;20035;-81
2024/02/09 15:27:59;;;;;;;4.38;2.28;;;;;;;;;;4928109;28;20029;-81
2024/02/09 15:30:44;;;;;;;6.57;2.28;;;;;;;;;;4923344;28;20103;-81
2024/02/09 15:33:30;;;;;;;7.25;1.92;;;;;;;;;;4934665;28;20023;-81
2024/02/09 15:36:17;;;;;;;4.88;2.42;;;;;;;;;;4930575;29;20023;-81
2024/02/09 15:39:02;;;;;;;6.85;2.58;;;;;;;;;;4931960;29;20051;-81
2024/02/09 15:41:47;;;;;;;7.90;2.58;;;;;;;;;;4928841;28;20355;-81
2024/02/09 15:44:33;;;;;;;4.93;1.90;;;;;;;;;;4934101;28;20042;-81
2024/02/09 15:47:19;;;;;;;6.70;2.40;;;;;;;;;;4927608;28;20027;-79
2024/02/09 15:50:05;;;;;;;5.10;1.80;;;;;;;;;;4935766;28;20030;-80
2024/02/09 15:52:50;;;;;;;6.55;1.90;;;;;;;;;;4936961;28;20027;-79
2024/02/09 15:55:37;;;;;;;5.70;2.15;;;;;;;;;;4931508;28;20115;-81
2024/02/09 15:58:23;;;;;;;6.68;2.55;;;;;;;;;;4927566;29;20038;-80
2024/02/09 16:01:08;;;;;;;4.93;2.00;;;;;;;;;;4930329;28;20050;-79
2024/02/09 16:03:58;;;;;;;4.43;2.20;;;;;;;;;;4929414;28;20039;-79
2024/02/09 16:06:43;;;;;;;11.05;3.17;;;;;;;;;;4929820;28;20116;-81
2024/02/09 16:09:28;;;;;;;6.93;2.17;;;;;;;;;;4932017;28;20597;-80
2024/02/09 16:12:14;;;;;;;31.00;16.27;;;;;;;;;;4930693;29;20130;-81
2024/02/09 16:14:59;;;;;;;13.18;6.57;;;;;;;;;;4929110;28;20118;-82
2024/02/09 16:17:45;;;;;;;11.70;4.70;;;;;;;;;;4935415;28;20054;-79
2024/02/09 16:20:30;;;;;;;11.23;3.35;;;;;;;;;;4935485;28;20027;-79
2024/02/09 16:23:16;;;;;;;8.93;3.20;;;;;;;;;;4933054;28;20074;-81
2024/02/09 16:26:01;;;;;;;6.90;2.50;;;;;;;;;;4933781;28;20047;-81
2024/02/09 16:28:47;;;;;;;5.00;2.20;;;;;;;;;;4929066;29;20042;-80
2024/02/09 16:31:33;;;;;;;4.45;1.90;;;;;;;;;;4930690;28;20521;-79
2024/02/09 16:34:18;;;;;;;7.28;2.50;;;;;;;;;;4932810;28;20030;-83
2024/02/09 16:37:05;;;;;;;7.20;2.13;;;;;;;;;;4926717;29;20114;-86
2024/02/09 16:39:54;;;;;;;7.75;2.80;;;;;;;;;;4919416;28;20073;-77
2024/02/09 16:42:40;;;;;;;5.13;2.63;;;;;;;;;;4932096;28;20043;-80
2024/02/09 16:45:30;;;;;;;9.07;2.88;;;;;;;;;;4937469;28;20047;-74
2024/02/09 16:48:15;;;;;;;6.95;2.88;;;;;;;;;;4929227;29;20031;-81
2024/02/09 16:51:02;;;;;;;5.93;2.10;;;;;;;;;;4928879;28;20047;-82
2024/02/09 16:53:48;;;;;;;5.85;3.03;;;;;;;;;;4935386;28;20062;-82
2024/02/09 16:56:33;;;;;;;8.63;3.60;;;;;;;;;;4940813;28;20110;-81
2024/02/09 16:59:18;;;;;;;7.80;3.33;;;;;;;;;;4941758;29;20019;-81
2024/02/09 17:02:06;;;;;;;9.52;2.90;;;;;;;;;;4934838;28;20094;-81
2024/02/09 17:04:52;;;;;;;6.20;2.95;;;;;;;;;;4935303;28;20090;-81
2024/02/09 17:07:37;;;;;;;6.63;2.30;;;;;;;;;;4942226;28;20054;-82
2024/02/09 17:10:23;;;;;;;4.75;2.58;;;;;;;;;;4939497;29;20015;-81
2024/02/09 17:13:08;;;;;;;7.15;2.47;;;;;;;;;;4948188;28;20073;-81
2024/02/09 17:15:53;;;;;;;8.38;3.22;;;;;;;;;;4937682;28;20043;-81
2024/02/09 17:18:38;;;;;;;5.78;2.55;;;;;;;;;;4946672;28;20421;-80
2024/02/09 17:21:24;;;;;;;4.78;2.28;;;;;;;;;;4918567;28;20082;-80
2024/02/09 17:24:10;;;;;;;4.93;2.40;;;;;;;;;;4933006;28;20023;-81
2024/02/09 17:26:59;;;;;;;5.70;3.05;;;;;;;;;;4938364;28;20110;-84
2024/02/09 17:29:45;;;;;;;5.25;2.35;;;;;;;;;;4936873;28;20126;-83
2024/02/09 17:32:30;;;;;;;5.20;1.92;;;;;;;;;;4937931;28;20020;-83
2024/02/09 17:35:15;;;;;;;3.83;2.20;;;;;;;;;;4939049;28;20023;-81
2024/02/09 17:38:00;;;;;;;3.30;1.85;;;;;;;;;;4933839;28;20367;-82
2024/02/09 17:40:46;;;;;;;3.55;1.60;;;;;;;;;;4933201;28;20027;-81
2024/02/09 17:43:31;;;;;;;1.98;1.63;;;;;;;;;;4935535;28;20038;-81
2024/02/09 17:46:17;;;;;;;2.75;1.60;;;;;;;;;;4935371;28;20031;-81
2024/02/09 17:49:02;;;;;;;2.47;1.30;;;;;;;;;;4934736;29;20064;-81
2024/02/09 17:51:48;;;;;;;3.17;1.55;;;;;;;;;;4932753;28;20076;-80
2024/02/09 17:54:33;;;;;;;5.43;2.25;;;;;;;;;;4931698;29;20749;-80
2024/02/09 17:57:18;;;;;;;2.05;1.58;;;;;;;;;;4935564;28;20023;-80
2024/02/09 18:00:05;;;;;;;3.97;1.40;;;;;;;;;;4922513;28;20031;-81
2024/02/09 18:02:51;;;;;;;1.98;1.25;;;;;;;;;;4930170;29;20032;-81
2024/02/09 18:05:39;;;;;;;2.67;1.20;;;;;;;;;;4935030;28;20027;-81
2024/02/09 18:08:24;;;;;;;3.42;1.30;;;;;;;;;;4933991;28;20454;-80
2024/02/09 18:11:11;;;;;;;3.42;1.55;;;;;;;;;;4927694;29;20055;-81
2024/02/09 18:13:57;;;;;;;3.38;1.30;;;;;;;;;;4926556;28;20046;-81
2024/02/09 18:16:42;;;;;;;5.22;1.80;;;;;;;;;;4930042;29;20063;-81
2024/02/09 18:19:28;;;;;;;5.13;1.85;;;;;;;;;;4928571;28;20110;-81
2024/02/09 18:22:17;;;;;;;2.78;1.55;;;;;;;;;;4925001;28;20031;-81